sensor_id;sensor_type;location;lat;lon;timestamp;temperature;humidity
63202;DHT22;49296;48.188;11.566;2024-03-02T00:00:28;8.45;85.94
63202;DHT22;49296;48.188;11.566;2024-03-02T00:02:54;8.44;85.87
63202;DHT22;49296;48.188;11.566;2024-03-02T00:05:22;8.47;85.84
63202;DHT22;49296;48.188;11.566;2024-03-02T00:07:54;8.45;85.92
63202;DHT22;49296;48.188;11.566;2024-03-02T00:10:24;8.50;85.89
63202;DHT22;49296;48.188;11.566;2024-03-02T00:12:55;8.50;85.97
63202;DHT22;49296;48.188;11.566;2024-03-02T00:15:40;8.52;86.02
63202;DHT22;49296;48.188;11.566;2024-03-02T00:18:10;8.54;86.10
63202;DHT22;49296;48.188;11.566;2024-03-02T00:20:37;8.50;86.09
63202;DHT22;49296;48.188;11.566;2024-03-02T00:23:07;8.47;86.25
63202;DHT22;49296;48.188;11.566;2024-03-02T00:25:41;8.44;86.35
63202;DHT22;49296;48.188;11.566;2024-03-02T00:28:16;8.48;86.30
63202;DHT22;49296;48.188;11.566;2024-03-02T00:31:02;8.44;86.47
63202;DHT22;49296;48.188;11.566;2024-03-02T00:33:31;8.41;86.47
63202;DHT22;49296;48.188;11.566;2024-03-02T00:35:58;8.36;86.33
63202;DHT22;49296;48.188;11.566;2024-03-02T00:38:28;8.34;86.32
63202;DHT22;49296;48.188;11.566;2024-03-02T00:40:56;8.29;86.39
63202;DHT22;49296;48.188;11.566;2024-03-02T00:43:42;8.37;86.30
63202;DHT22;49296;48.188;11.566;2024-03-02T00:46:11;8.37;86.23
63202;DHT22;49296;48.188;11.566;2024-03-02T00:48:40;8.34;86.18
63202;DHT22;49296;48.188;11.566;2024-03-02T00:51:12;8.31;86.33
63202;DHT22;49296;48.188;11.566;2024-03-02T00:53:40;8.37;86.14
63202;DHT22;49296;48.188;11.566;2024-03-02T00:56:09;8.26;86.24
63202;DHT22;49296;48.188;11.566;2024-03-02T00:58:36;8.29;86.27
63202;DHT22;49296;48.188;11.566;2024-03-02T01:01:03;8.24;86.24
63202;DHT22;49296;48.188;11.566;2024-03-02T01:03:31;8.24;86.28
63202;DHT22;49296;48.188;11.566;2024-03-02T01:05:57;8.26;86.41
63202;DHT22;49296;48.188;11.566;2024-03-02T01:08:24;8.24;86.38
63202;DHT22;49296;48.188;11.566;2024-03-02T01:10:53;8.29;86.36
63202;DHT22;49296;48.188;11.566;2024-03-02T01:13:20;8.31;85.83
63202;DHT22;49296;48.188;11.566;2024-03-02T01:15:46;8.31;85.50
63202;DHT22;49296;48.188;11.566;2024-03-02T01:18:13;8.30;85.32
63202;DHT22;49296;48.188;11.566;2024-03-02T01:20:40;8.27;85.42
63202;DHT22;49296;48.188;11.566;2024-03-02T01:23:06;8.27;85.38
63202;DHT22;49296;48.188;11.566;2024-03-02T01:25:33;8.26;85.14
63202;DHT22;49296;48.188;11.566;2024-03-02T01:28:02;8.31;85.15
63202;DHT22;49296;48.188;11.566;2024-03-02T01:30:29;8.26;85.13
63202;DHT22;49296;48.188;11.566;2024-03-02T01:32:56;8.24;84.99
63202;DHT22;49296;48.188;11.566;2024-03-02T01:35:24;8.20;85.14
63202;DHT22;49296;48.188;11.566;2024-03-02T01:37:52;8.26;85.18
63202;DHT22;49296;48.188;11.566;2024-03-02T01:40:18;8.29;85.05
63202;DHT22;49296;48.188;11.566;2024-03-02T01:42:45;8.30;84.91
63202;DHT22;49296;48.188;11.566;2024-03-02T01:45:14;8.31;84.93
63202;DHT22;49296;48.188;11.566;2024-03-02T01:47:40;8.31;84.94
63202;DHT22;49296;48.188;11.566;2024-03-02T01:50:07;8.33;85.03
63202;DHT22;49296;48.188;11.566;2024-03-02T01:52:36;8.29;85.22
63202;DHT22;49296;48.188;11.566;2024-03-02T01:55:04;8.31;85.07
63202;DHT22;49296;48.188;11.566;2024-03-02T01:57:31;8.30;85.10
63202;DHT22;49296;48.188;11.566;2024-03-02T01:59:58;8.33;85.03
63202;DHT22;49296;48.188;11.566;2024-03-02T02:02:26;8.29;85.16
63202;DHT22;49296;48.188;11.566;2024-03-02T02:04:53;8.27;85.31
63202;DHT22;49296;48.188;11.566;2024-03-02T02:07:19;8.29;85.23
63202;DHT22;49296;48.188;11.566;2024-03-02T02:09:46;8.27;85.23
63202;DHT22;49296;48.188;11.566;2024-03-02T02:12:13;8.27;85.08
63202;DHT22;49296;48.188;11.566;2024-03-02T02:14:47;8.33;85.08
63202;DHT22;49296;48.188;11.566;2024-03-02T02:17:14;8.30;85.02
63202;DHT22;49296;48.188;11.566;2024-03-02T02:19:42;8.26;84.90
63202;DHT22;49296;48.188;11.566;2024-03-02T02:22:10;8.24;84.94
63202;DHT22;49296;48.188;11.566;2024-03-02T02:24:39;8.17;85.16
63202;DHT22;49296;48.188;11.566;2024-03-02T02:27:06;8.26;85.01
63202;DHT22;49296;48.188;11.566;2024-03-02T02:29:33;8.26;85.08
63202;DHT22;49296;48.188;11.566;2024-03-02T02:31:59;8.23;85.08
63202;DHT22;49296;48.188;11.566;2024-03-02T02:34:29;8.17;85.26
63202;DHT22;49296;48.188;11.566;2024-03-02T02:36:56;8.20;85.31
63202;DHT22;49296;48.188;11.566;2024-03-02T02:39:24;8.22;85.24
63202;DHT22;49296;48.188;11.566;2024-03-02T02:41:51;8.23;85.13
63202;DHT22;49296;48.188;11.566;2024-03-02T02:44:17;8.20;85.13
63202;DHT22;49296;48.188;11.566;2024-03-02T02:46:44;8.23;85.17
63202;DHT22;49296;48.188;11.566;2024-03-02T02:49:11;8.20;85.06
63202;DHT22;49296;48.188;11.566;2024-03-02T02:51:37;8.20;84.94
63202;DHT22;49296;48.188;11.566;2024-03-02T02:54:04;8.22;84.79
63202;DHT22;49296;48.188;11.566;2024-03-02T02:56:32;8.19;84.90
63202;DHT22;49296;48.188;11.566;2024-03-02T02:58:59;8.20;84.85
63202;DHT22;49296;48.188;11.566;2024-03-02T03:01:25;8.10;85.11
63202;DHT22;49296;48.188;11.566;2024-03-02T03:03:52;8.13;85.14
63202;DHT22;49296;48.188;11.566;2024-03-02T03:06:19;8.20;84.68
63202;DHT22;49296;48.188;11.566;2024-03-02T03:08:45;8.26;84.60
63202;DHT22;49296;48.188;11.566;2024-03-02T03:11:12;8.24;84.68
63202;DHT22;49296;48.188;11.566;2024-03-02T03:13:41;8.23;84.73
63202;DHT22;49296;48.188;11.566;2024-03-02T03:16:08;8.19;84.77
63202;DHT22;49296;48.188;11.566;2024-03-02T03:18:35;8.22;84.84
63202;DHT22;49296;48.188;11.566;2024-03-02T03:21:01;8.17;84.89
63202;DHT22;49296;48.188;11.566;2024-03-02T03:23:28;8.16;84.82
63202;DHT22;49296;48.188;11.566;2024-03-02T03:25:55;8.16;84.74
63202;DHT22;49296;48.188;11.566;2024-03-02T03:28:21;8.13;84.75
63202;DHT22;49296;48.188;11.566;2024-03-02T03:30:49;8.14;84.84
63202;DHT22;49296;48.188;11.566;2024-03-02T03:33:16;8.06;85.04
63202;DHT22;49296;48.188;11.566;2024-03-02T03:35:43;8.06;85.18
63202;DHT22;49296;48.188;11.566;2024-03-02T03:38:10;8.00;85.41
63202;DHT22;49296;48.188;11.566;2024-03-02T03:40:37;7.99;85.47
63202;DHT22;49296;48.188;11.566;2024-03-02T03:43:04;7.96;85.67
63202;DHT22;49296;48.188;11.566;2024-03-02T03:45:30;7.89;86.00
63202;DHT22;49296;48.188;11.566;2024-03-02T03:47:58;7.96;85.67
63202;DHT22;49296;48.188;11.566;2024-03-02T03:50:25;7.90;86.07
63202;DHT22;49296;48.188;11.566;2024-03-02T03:52:52;7.97;85.79
63202;DHT22;49296;48.188;11.566;2024-03-02T03:55:19;7.99;85.67
63202;DHT22;49296;48.188;11.566;2024-03-02T03:57:45;8.06;85.64
63202;DHT22;49296;48.188;11.566;2024-03-02T04:00:13;8.10;85.57
63202;DHT22;49296;48.188;11.566;2024-03-02T04:02:40;8.12;85.54
63202;DHT22;49296;48.188;11.566;2024-03-02T04:05:08;8.09;85.48
63202;DHT22;49296;48.188;11.566;2024-03-02T04:07:36;8.09;85.59
63202;DHT22;49296;48.188;11.566;2024-03-02T04:10:08;7.99;85.79
63202;DHT22;49296;48.188;11.566;2024-03-02T04:12:36;8.03;86.03
63202;DHT22;49296;48.188;11.566;2024-03-02T04:15:04;8.06;85.87
63202;DHT22;49296;48.188;11.566;2024-03-02T04:17:32;8.03;86.00
63202;DHT22;49296;48.188;11.566;2024-03-02T04:20:01;7.99;85.94
63202;DHT22;49296;48.188;11.566;2024-03-02T04:22:33;8.00;85.94
63202;DHT22;49296;48.188;11.566;2024-03-02T04:25:00;7.99;85.85
63202;DHT22;49296;48.188;11.566;2024-03-02T04:27:26;8.05;85.64
63202;DHT22;49296;48.188;11.566;2024-03-02T04:29:53;8.06;85.81
63202;DHT22;49296;48.188;11.566;2024-03-02T04:32:20;8.07;85.77
63202;DHT22;49296;48.188;11.566;2024-03-02T04:34:46;8.09;85.66
63202;DHT22;49296;48.188;11.566;2024-03-02T04:37:13;8.10;85.72
63202;DHT22;49296;48.188;11.566;2024-03-02T04:39:41;8.14;85.55
63202;DHT22;49296;48.188;11.566;2024-03-02T04:42:08;8.12;85.55
63202;DHT22;49296;48.188;11.566;2024-03-02T04:44:35;8.19;85.53
63202;DHT22;49296;48.188;11.566;2024-03-02T04:47:03;8.19;85.39
63202;DHT22;49296;48.188;11.566;2024-03-02T04:49:30;8.09;85.58
63202;DHT22;49296;48.188;11.566;2024-03-02T04:51:56;7.97;85.86
63202;DHT22;49296;48.188;11.566;2024-03-02T04:54:24;8.07;85.71
63202;DHT22;49296;48.188;11.566;2024-03-02T04:56:52;8.10;85.54
63202;DHT22;49296;48.188;11.566;2024-03-02T04:59:18;8.16;85.65
63202;DHT22;49296;48.188;11.566;2024-03-02T05:01:45;8.12;85.60
63202;DHT22;49296;48.188;11.566;2024-03-02T05:04:12;8.09;85.54
63202;DHT22;49296;48.188;11.566;2024-03-02T05:06:39;8.12;85.48
63202;DHT22;49296;48.188;11.566;2024-03-02T05:09:06;8.17;85.56
63202;DHT22;49296;48.188;11.566;2024-03-02T05:11:33;8.17;85.69
63202;DHT22;49296;48.188;11.566;2024-03-02T05:14:36;8.20;85.82
63202;DHT22;49296;48.188;11.566;2024-03-02T05:17:04;8.23;85.80
63202;DHT22;49296;48.188;11.566;2024-03-02T05:19:30;8.22;85.79
63202;DHT22;49296;48.188;11.566;2024-03-02T05:21:57;8.20;85.78
63202;DHT22;49296;48.188;11.566;2024-03-02T05:24:24;8.23;85.79
63202;DHT22;49296;48.188;11.566;2024-03-02T05:26:52;8.24;85.72
63202;DHT22;49296;48.188;11.566;2024-03-02T05:29:19;8.23;85.70
63202;DHT22;49296;48.188;11.566;2024-03-02T05:31:47;8.20;85.80
63202;DHT22;49296;48.188;11.566;2024-03-02T05:34:14;8.23;85.69
63202;DHT22;49296;48.188;11.566;2024-03-02T05:36:40;8.16;85.98
63202;DHT22;49296;48.188;11.566;2024-03-02T05:39:07;7.81;86.57
63202;DHT22;49296;48.188;11.566;2024-03-02T05:41:35;7.82;86.98
63202;DHT22;49296;48.188;11.566;2024-03-02T05:44:03;7.81;87.09
63202;DHT22;49296;48.188;11.566;2024-03-02T05:46:30;7.82;87.27
63202;DHT22;49296;48.188;11.566;2024-03-02T05:48:58;7.89;87.15
63202;DHT22;49296;48.188;11.566;2024-03-02T05:51:25;7.96;86.98
63202;DHT22;49296;48.188;11.566;2024-03-02T05:53:52;7.95;87.07
63202;DHT22;49296;48.188;11.566;2024-03-02T05:56:18;8.00;86.86
63202;DHT22;49296;48.188;11.566;2024-03-02T05:58:45;8.03;86.68
63202;DHT22;49296;48.188;11.566;2024-03-02T06:01:23;8.05;86.64
63202;DHT22;49296;48.188;11.566;2024-03-02T06:03:53;8.02;86.83
63202;DHT22;49296;48.188;11.566;2024-03-02T06:06:22;7.97;86.82
63202;DHT22;49296;48.188;11.566;2024-03-02T06:08:48;7.99;86.89
63202;DHT22;49296;48.188;11.566;2024-03-02T06:11:15;7.90;86.96
63202;DHT22;49296;48.188;11.566;2024-03-02T06:13:42;7.92;87.05
63202;DHT22;49296;48.188;11.566;2024-03-02T06:16:09;7.97;86.90
63202;DHT22;49296;48.188;11.566;2024-03-02T06:18:35;7.97;86.77
63202;DHT22;49296;48.188;11.566;2024-03-02T06:21:02;7.92;86.95
63202;DHT22;49296;48.188;11.566;2024-03-02T06:23:31;7.97;86.86
63202;DHT22;49296;48.188;11.566;2024-03-02T06:25:57;7.99;86.82
63202;DHT22;49296;48.188;11.566;2024-03-02T06:28:24;7.99;86.75
63202;DHT22;49296;48.188;11.566;2024-03-02T06:30:50;8.07;86.65
63202;DHT22;49296;48.188;11.566;2024-03-02T06:33:17;8.03;86.78
63202;DHT22;49296;48.188;11.566;2024-03-02T06:35:44;8.09;86.70
63202;DHT22;49296;48.188;11.566;2024-03-02T06:38:11;8.10;86.72
63202;DHT22;49296;48.188;11.566;2024-03-02T06:40:39;8.07;86.85
63202;DHT22;49296;48.188;11.566;2024-03-02T06:43:06;8.00;86.93
63202;DHT22;49296;48.188;11.566;2024-03-02T06:45:32;7.97;87.04
63202;DHT22;49296;48.188;11.566;2024-03-02T06:48:00;7.88;87.14
63202;DHT22;49296;48.188;11.566;2024-03-02T06:50:26;7.88;87.00
63202;DHT22;49296;48.188;11.566;2024-03-02T06:52:53;7.96;86.90
63202;DHT22;49296;48.188;11.566;2024-03-02T06:55:21;8.03;86.71
63202;DHT22;49296;48.188;11.566;2024-03-02T06:57:49;8.03;86.61
63202;DHT22;49296;48.188;11.566;2024-03-02T07:00:16;8.05;86.58
63202;DHT22;49296;48.188;11.566;2024-03-02T07:02:45;8.06;86.62
63202;DHT22;49296;48.188;11.566;2024-03-02T07:05:12;8.06;86.73
63202;DHT22;49296;48.188;11.566;2024-03-02T07:07:39;8.10;86.74
63202;DHT22;49296;48.188;11.566;2024-03-02T07:10:07;8.07;86.83
63202;DHT22;49296;48.188;11.566;2024-03-02T07:12:33;8.05;87.01
63202;DHT22;49296;48.188;11.566;2024-03-02T07:15:02;8.00;87.12
63202;DHT22;49296;48.188;11.566;2024-03-02T07:17:50;8.03;86.92
63202;DHT22;49296;48.188;11.566;2024-03-02T07:20:17;8.05;86.99
63202;DHT22;49296;48.188;11.566;2024-03-02T07:22:43;8.03;86.90
63202;DHT22;49296;48.188;11.566;2024-03-02T07:25:10;8.07;86.90
63202;DHT22;49296;48.188;11.566;2024-03-02T07:27:37;8.10;86.97
63202;DHT22;49296;48.188;11.566;2024-03-02T07:30:06;8.14;86.81
63202;DHT22;49296;48.188;11.566;2024-03-02T07:32:33;8.20;86.67
63202;DHT22;49296;48.188;11.566;2024-03-02T07:35:00;8.20;86.50
63202;DHT22;49296;48.188;11.566;2024-03-02T07:37:29;8.22;86.52
63202;DHT22;49296;48.188;11.566;2024-03-02T07:39:55;8.22;86.56
63202;DHT22;49296;48.188;11.566;2024-03-02T07:42:22;8.24;86.54
63202;DHT22;49296;48.188;11.566;2024-03-02T07:44:49;8.27;86.52
63202;DHT22;49296;48.188;11.566;2024-03-02T07:47:17;8.30;86.59
63202;DHT22;49296;48.188;11.566;2024-03-02T07:49:44;8.33;86.65
63202;DHT22;49296;48.188;11.566;2024-03-02T07:52:11;8.36;86.65
63202;DHT22;49296;48.188;11.566;2024-03-02T07:54:38;8.29;86.90
63202;DHT22;49296;48.188;11.566;2024-03-02T07:57:04;8.24;86.93
63202;DHT22;49296;48.188;11.566;2024-03-02T07:59:31;8.29;86.99
63202;DHT22;49296;48.188;11.566;2024-03-02T08:01:58;8.45;86.65
63202;DHT22;49296;48.188;11.566;2024-03-02T08:04:27;8.51;86.33
63202;DHT22;49296;48.188;11.566;2024-03-02T08:06:54;8.50;86.10
63202;DHT22;49296;48.188;11.566;2024-03-02T08:09:21;8.59;85.65
63202;DHT22;49296;48.188;11.566;2024-03-02T08:11:47;8.64;85.62
63202;DHT22;49296;48.188;11.566;2024-03-02T08:14:15;8.71;85.60
63202;DHT22;49296;48.188;11.566;2024-03-02T08:16:42;8.73;85.34
63202;DHT22;49296;48.188;11.566;2024-03-02T08:19:09;8.80;85.15
63202;DHT22;49296;48.188;11.566;2024-03-02T08:21:38;8.86;84.92
63202;DHT22;49296;48.188;11.566;2024-03-02T08:24:05;8.79;85.06
63202;DHT22;49296;48.188;11.566;2024-03-02T08:26:32;8.80;84.77
63202;DHT22;49296;48.188;11.566;2024-03-02T08:28:59;8.73;85.05
63202;DHT22;49296;48.188;11.566;2024-03-02T08:31:27;8.80;84.98
63202;DHT22;49296;48.188;11.566;2024-03-02T08:33:53;8.92;84.74
63202;DHT22;49296;48.188;11.566;2024-03-02T08:36:20;8.97;84.66
63202;DHT22;49296;48.188;11.566;2024-03-02T08:38:49;8.78;84.53
63202;DHT22;49296;48.188;11.566;2024-03-02T08:41:17;8.83;84.53
63202;DHT22;49296;48.188;11.566;2024-03-02T08:43:44;8.92;84.34
63202;DHT22;49296;48.188;11.566;2024-03-02T08:46:10;9.03;83.93
63202;DHT22;49296;48.188;11.566;2024-03-02T08:48:37;9.11;84.02
63202;DHT22;49296;48.188;11.566;2024-03-02T08:51:04;9.19;84.22
63202;DHT22;49296;48.188;11.566;2024-03-02T08:53:33;9.30;83.79
63202;DHT22;49296;48.188;11.566;2024-03-02T08:56:01;9.45;83.34
63202;DHT22;49296;48.188;11.566;2024-03-02T08:58:30;9.44;83.76
63202;DHT22;49296;48.188;11.566;2024-03-02T09:00:57;9.56;83.93
63202;DHT22;49296;48.188;11.566;2024-03-02T09:03:24;9.51;83.28
63202;DHT22;49296;48.188;11.566;2024-03-02T09:05:51;9.54;82.83
63202;DHT22;49296;48.188;11.566;2024-03-02T09:08:17;9.56;83.45
63202;DHT22;49296;48.188;11.566;2024-03-02T09:10:44;9.51;83.65
63202;DHT22;49296;48.188;11.566;2024-03-02T09:13:12;9.59;83.46
63202;DHT22;49296;48.188;11.566;2024-03-02T09:15:39;9.55;83.47
63202;DHT22;49296;48.188;11.566;2024-03-02T09:18:06;9.66;83.34
63202;DHT22;49296;48.188;11.566;2024-03-02T09:20:32;9.71;83.11
63202;DHT22;49296;48.188;11.566;2024-03-02T09:22:58;9.83;82.86
63202;DHT22;49296;48.188;11.566;2024-03-02T09:25:25;9.87;82.85
63202;DHT22;49296;48.188;11.566;2024-03-02T09:27:53;9.93;82.43
63202;DHT22;49296;48.188;11.566;2024-03-02T09:30:21;9.96;81.80
63202;DHT22;49296;48.188;11.566;2024-03-02T09:32:47;10.10;81.09
63202;DHT22;49296;48.188;11.566;2024-03-02T09:35:14;10.21;81.25
63202;DHT22;49296;48.188;11.566;2024-03-02T09:37:41;10.11;81.02
63202;DHT22;49296;48.188;11.566;2024-03-02T09:40:09;10.16;81.36
63202;DHT22;49296;48.188;11.566;2024-03-02T09:42:36;10.09;81.01
63202;DHT22;49296;48.188;11.566;2024-03-02T09:45:04;10.17;80.62
63202;DHT22;49296;48.188;11.566;2024-03-02T09:47:33;10.17;80.40
63202;DHT22;49296;48.188;11.566;2024-03-02T09:49:59;10.20;80.19
63202;DHT22;49296;48.188;11.566;2024-03-02T09:52:26;10.28;79.64
63202;DHT22;49296;48.188;11.566;2024-03-02T09:54:53;10.33;79.67
63202;DHT22;49296;48.188;11.566;2024-03-02T09:57:20;10.30;80.15
63202;DHT22;49296;48.188;11.566;2024-03-02T09:59:47;10.27;80.07
63202;DHT22;49296;48.188;11.566;2024-03-02T10:02:13;10.35;79.84
63202;DHT22;49296;48.188;11.566;2024-03-02T10:04:41;10.31;80.46
63202;DHT22;49296;48.188;11.566;2024-03-02T10:07:12;10.40;80.59
63202;DHT22;49296;48.188;11.566;2024-03-02T10:09:39;10.42;80.83
63202;DHT22;49296;48.188;11.566;2024-03-02T10:12:07;10.46;80.66
63202;DHT22;49296;48.188;11.566;2024-03-02T10:14:34;10.63;79.96
63202;DHT22;49296;48.188;11.566;2024-03-02T10:17:03;10.63;79.89
63202;DHT22;49296;48.188;11.566;2024-03-02T10:19:30;10.75;79.33
63202;DHT22;49296;48.188;11.566;2024-03-02T10:22:00;10.62;79.73
63202;DHT22;49296;48.188;11.566;2024-03-02T10:24:34;10.66;79.68
63202;DHT22;49296;48.188;11.566;2024-03-02T10:27:01;10.72;78.09
63202;DHT22;49296;48.188;11.566;2024-03-02T10:29:29;10.77;77.18
63202;DHT22;49296;48.188;11.566;2024-03-02T10:31:56;10.65;77.16
63202;DHT22;49296;48.188;11.566;2024-03-02T10:34:25;10.73;77.33
63202;DHT22;49296;48.188;11.566;2024-03-02T10:36:51;10.80;77.19
63202;DHT22;49296;48.188;11.566;2024-03-02T10:39:20;10.84;77.22
63202;DHT22;49296;48.188;11.566;2024-03-02T10:41:49;10.87;77.09
63202;DHT22;49296;48.188;11.566;2024-03-02T10:44:18;10.86;77.12
63202;DHT22;49296;48.188;11.566;2024-03-02T10:46:46;10.84;77.15
63202;DHT22;49296;48.188;11.566;2024-03-02T10:49:13;10.92;76.88
63202;DHT22;49296;48.188;11.566;2024-03-02T10:51:40;10.92;76.99
63202;DHT22;49296;48.188;11.566;2024-03-02T10:54:08;11.01;77.92
63202;DHT22;49296;48.188;11.566;2024-03-02T10:56:39;11.07;78.08
63202;DHT22;49296;48.188;11.566;2024-03-02T10:59:12;11.18;78.69
63202;DHT22;49296;48.188;11.566;2024-03-02T11:01:42;11.15;77.96
63202;DHT22;49296;48.188;11.566;2024-03-02T11:04:13;11.11;77.69
63202;DHT22;49296;48.188;11.566;2024-03-02T11:06:41;11.06;78.13
63202;DHT22;49296;48.188;11.566;2024-03-02T11:09:11;11.08;77.04
63202;DHT22;49296;48.188;11.566;2024-03-02T11:11:42;11.13;76.35
63202;DHT22;49296;48.188;11.566;2024-03-02T11:14:10;11.18;78.19
63202;DHT22;49296;48.188;11.566;2024-03-02T11:16:39;11.21;76.64
63202;DHT22;49296;48.188;11.566;2024-03-02T11:19:10;11.28;77.38
63202;DHT22;49296;48.188;11.566;2024-03-02T11:21:37;11.32;78.28
63202;DHT22;49296;48.188;11.566;2024-03-02T11:24:30;11.41;78.88
63202;DHT22;49296;48.188;11.566;2024-03-02T11:27:02;11.43;78.94
63202;DHT22;49296;48.188;11.566;2024-03-02T11:29:45;11.51;78.88
63202;DHT22;49296;48.188;11.566;2024-03-02T11:32:17;11.51;79.38
63202;DHT22;49296;48.188;11.566;2024-03-02T11:34:46;11.58;79.11
63202;DHT22;49296;48.188;11.566;2024-03-02T11:37:14;11.72;78.12
63202;DHT22;49296;48.188;11.566;2024-03-02T11:39:43;11.76;77.64
63202;DHT22;49296;48.188;11.566;2024-03-02T11:42:12;11.80;77.17
63202;DHT22;49296;48.188;11.566;2024-03-02T11:44:42;11.80;77.50
63202;DHT22;49296;48.188;11.566;2024-03-02T11:47:11;11.90;77.18
63202;DHT22;49296;48.188;11.566;2024-03-02T11:49:42;11.90;77.29
63202;DHT22;49296;48.188;11.566;2024-03-02T11:52:10;11.90;77.49
63202;DHT22;49296;48.188;11.566;2024-03-02T11:54:38;12.07;76.35
63202;DHT22;49296;48.188;11.566;2024-03-02T11:57:06;12.05;75.79
63202;DHT22;49296;48.188;11.566;2024-03-02T11:59:35;12.01;75.60
63202;DHT22;49296;48.188;11.566;2024-03-02T12:02:02;12.08;75.72
63202;DHT22;49296;48.188;11.566;2024-03-02T12:04:29;12.11;75.68
63202;DHT22;49296;48.188;11.566;2024-03-02T12:06:59;12.25;76.27
63202;DHT22;49296;48.188;11.566;2024-03-02T12:09:26;12.28;75.26
63202;DHT22;49296;48.188;11.566;2024-03-02T12:12:03;12.39;75.09
63202;DHT22;49296;48.188;11.566;2024-03-02T12:14:31;12.53;74.14
63202;DHT22;49296;48.188;11.566;2024-03-02T12:16:59;12.66;75.27
63202;DHT22;49296;48.188;11.566;2024-03-02T12:19:26;12.82;75.58
63202;DHT22;49296;48.188;11.566;2024-03-02T12:21:55;12.93;74.06
63202;DHT22;49296;48.188;11.566;2024-03-02T12:24:22;13.03;73.51
63202;DHT22;49296;48.188;11.566;2024-03-02T12:26:49;13.08;74.33
63202;DHT22;49296;48.188;11.566;2024-03-02T12:29:16;13.25;72.45
63202;DHT22;49296;48.188;11.566;2024-03-02T12:31:44;13.43;73.00
63202;DHT22;49296;48.188;11.566;2024-03-02T12:34:13;13.45;72.62
63202;DHT22;49296;48.188;11.566;2024-03-02T12:36:40;13.49;72.32
63202;DHT22;49296;48.188;11.566;2024-03-02T12:39:08;13.69;71.35
63202;DHT22;49296;48.188;11.566;2024-03-02T12:41:36;13.76;71.76
63202;DHT22;49296;48.188;11.566;2024-03-02T12:44:03;14.04;76.07
63202;DHT22;49296;48.188;11.566;2024-03-02T12:46:30;14.29;74.94
63202;DHT22;49296;48.188;11.566;2024-03-02T12:48:56;14.39;71.82
63202;DHT22;49296;48.188;11.566;2024-03-02T12:51:26;14.46;71.38
63202;DHT22;49296;48.188;11.566;2024-03-02T12:53:53;14.49;70.29
63202;DHT22;49296;48.188;11.566;2024-03-02T12:56:20;14.50;69.57
63202;DHT22;49296;48.188;11.566;2024-03-02T12:58:47;14.52;69.74
63202;DHT22;49296;48.188;11.566;2024-03-02T13:01:15;14.69;69.53
63202;DHT22;49296;48.188;11.566;2024-03-02T13:03:44;14.79;68.76
63202;DHT22;49296;48.188;11.566;2024-03-02T13:06:11;14.69;69.34
63202;DHT22;49296;48.188;11.566;2024-03-02T13:08:39;14.77;69.37
63202;DHT22;49296;48.188;11.566;2024-03-02T13:11:06;14.76;69.85
63202;DHT22;49296;48.188;11.566;2024-03-02T13:13:32;14.98;70.36
63202;DHT22;49296;48.188;11.566;2024-03-02T13:16:00;15.19;69.03
63202;DHT22;49296;48.188;11.566;2024-03-02T13:18:28;15.35;68.49
63202;DHT22;49296;48.188;11.566;2024-03-02T13:20:56;15.35;67.71
63202;DHT22;49296;48.188;11.566;2024-03-02T13:23:23;15.63;66.84
63202;DHT22;49296;48.188;11.566;2024-03-02T13:25:51;15.84;66.92
63202;DHT22;49296;48.188;11.566;2024-03-02T13:28:18;15.88;66.21
63202;DHT22;49296;48.188;11.566;2024-03-02T13:30:44;15.83;65.94
63202;DHT22;49296;48.188;11.566;2024-03-02T13:33:11;15.97;64.95
63202;DHT22;49296;48.188;11.566;2024-03-02T13:35:38;15.98;65.03
63202;DHT22;49296;48.188;11.566;2024-03-02T13:38:04;16.05;63.80
63202;DHT22;49296;48.188;11.566;2024-03-02T13:40:31;16.21;63.65
63202;DHT22;49296;48.188;11.566;2024-03-02T13:43:02;16.18;63.13
63202;DHT22;49296;48.188;11.566;2024-03-02T13:45:29;16.15;63.02
63202;DHT22;49296;48.188;11.566;2024-03-02T13:47:55;16.19;63.37
63202;DHT22;49296;48.188;11.566;2024-03-02T13:50:22;16.35;63.28
63202;DHT22;49296;48.188;11.566;2024-03-02T13:52:49;16.35;62.51
63202;DHT22;49296;48.188;11.566;2024-03-02T13:55:16;16.45;63.47
63202;DHT22;49296;48.188;11.566;2024-03-02T13:57:42;16.38;63.76
63202;DHT22;49296;48.188;11.566;2024-03-02T14:00:12;16.11;64.57
63202;DHT22;49296;48.188;11.566;2024-03-02T14:02:39;16.29;62.71
63202;DHT22;49296;48.188;11.566;2024-03-02T14:05:06;16.08;63.20
63202;DHT22;49296;48.188;11.566;2024-03-02T14:07:37;15.90;63.20
63202;DHT22;49296;48.188;11.566;2024-03-02T14:10:04;15.43;62.77
63202;DHT22;49296;48.188;11.566;2024-03-02T14:12:31;15.49;63.76
63202;DHT22;49296;48.188;11.566;2024-03-02T14:14:58;15.29;63.51
63202;DHT22;49296;48.188;11.566;2024-03-02T14:17:29;15.08;64.95
63202;DHT22;49296;48.188;11.566;2024-03-02T14:19:57;14.97;65.04
63202;DHT22;49296;48.188;11.566;2024-03-02T14:22:24;14.95;65.22
63202;DHT22;49296;48.188;11.566;2024-03-02T14:24:50;15.05;64.61
63202;DHT22;49296;48.188;11.566;2024-03-02T14:27:17;15.10;64.89
63202;DHT22;49296;48.188;11.566;2024-03-02T14:29:44;15.24;65.12
63202;DHT22;49296;48.188;11.566;2024-03-02T14:32:11;15.28;64.93
63202;DHT22;49296;48.188;11.566;2024-03-02T14:34:39;15.28;64.83
63202;DHT22;49296;48.188;11.566;2024-03-02T14:37:06;15.35;64.05
63202;DHT22;49296;48.188;11.566;2024-03-02T14:39:33;15.38;63.29
63202;DHT22;49296;48.188;11.566;2024-03-02T14:42:00;15.46;64.27
63202;DHT22;49296;48.188;11.566;2024-03-02T14:44:27;15.55;63.24
63202;DHT22;49296;48.188;11.566;2024-03-02T14:46:54;15.57;63.66
63202;DHT22;49296;48.188;11.566;2024-03-02T14:49:21;15.55;62.88
63202;DHT22;49296;48.188;11.566;2024-03-02T14:51:49;15.63;63.27
63202;DHT22;49296;48.188;11.566;2024-03-02T14:54:15;15.71;62.43
63202;DHT22;49296;48.188;11.566;2024-03-02T14:56:42;15.94;63.13
63202;DHT22;49296;48.188;11.566;2024-03-02T14:59:09;15.91;62.33
63202;DHT22;49296;48.188;11.566;2024-03-02T15:01:36;15.94;62.69
63202;DHT22;49296;48.188;11.566;2024-03-02T15:04:03;15.88;62.98
63202;DHT22;49296;48.188;11.566;2024-03-02T15:06:29;15.98;62.71
63202;DHT22;49296;48.188;11.566;2024-03-02T15:08:57;16.21;61.85
63202;DHT22;49296;48.188;11.566;2024-03-02T15:11:24;16.33;61.39
63202;DHT22;49296;48.188;11.566;2024-03-02T15:13:51;16.46;61.51
63202;DHT22;49296;48.188;11.566;2024-03-02T15:16:18;16.55;60.52
63202;DHT22;49296;48.188;11.566;2024-03-02T15:18:44;16.67;61.20
63202;DHT22;49296;48.188;11.566;2024-03-02T15:21:11;16.97;59.80
63202;DHT22;49296;48.188;11.566;2024-03-02T15:23:38;16.69;60.76
63202;DHT22;49296;48.188;11.566;2024-03-02T15:26:06;16.81;60.23
63202;DHT22;49296;48.188;11.566;2024-03-02T15:28:33;16.50;61.68